Time;durP1;ratioP1;P1;durP2;ratioP2;P2;SDS_P1;SDS_P2;PMS_P1;PMS_P2;Temp;Humidity;BMP_temperature;BMP_pressure;BME280_temperature;BME280_humidity;BME280_pressure;Samples;Min_cycle;Max_cycle;Signal;HPM_P1;HPM_P2
2023/07/08 00:00:29;;;;;;;8.63;4.00;;;;;;;21.52;46.91;99685.56;4404726;32;33893;-87
2023/07/08 00:02:57;;;;;;;6.22;3.10;;;;;;;21.43;47.38;99688.41;4392377;32;34286;-86
2023/07/08 00:05:25;;;;;;;6.40;3.50;;;;;;;21.55;47.34;99686.34;4392066;32;33615;-86
2023/07/08 00:07:53;;;;;;;9.43;3.47;;;;;;;21.51;47.12;99691.72;4405890;32;34120;-87
2023/07/08 00:10:23;;;;;;;5.97;3.40;;;;;;;21.52;47.28;99690.84;4406005;32;33816;-87
2023/07/08 00:12:52;;;;;;;6.53;3.42;;;;;;;21.47;47.91;99685.66;4392159;32;34176;-85
2023/07/08 00:15:32;;;;;;;6.65;3.60;;;;;;;21.33;47.64;99687.78;4391784;32;34670;-87
2023/07/08 00:18:00;;;;;;;7.37;3.55;;;;;;;21.47;47.52;99692.72;4392317;32;34030;-85
2023/07/08 00:20:38;;;;;;;7.07;3.40;;;;;;;21.41;47.73;99685.81;4406007;32;33414;-87
2023/07/08 00:23:05;;;;;;;7.10;3.10;;;;;;;21.44;47.37;99696.31;4406224;32;33914;-87
2023/07/08 00:25:33;;;;;;;8.95;3.60;;;;;;;21.36;46.93;99691.19;4364545;32;34114;-86
2023/07/08 00:28:01;;;;;;;7.22;3.10;;;;;;;21.37;46.82;99695.56;4391449;32;32523;-86
2023/07/08 00:30:31;;;;;;;8.45;3.35;;;;;;;21.32;46.81;99686.84;4379789;32;34898;-86
2023/07/08 00:32:58;;;;;;;7.05;3.12;;;;;;;21.21;47.03;99680.94;4405952;32;33071;-84
2023/07/08 00:35:42;;;;;;;9.45;3.70;;;;;;;21.20;47.03;99679.22;4405710;32;34669;-87
2023/07/08 00:38:26;;;;;;;7.70;3.05;;;;;;;21.30;46.91;99682.53;4379847;32;33400;-86
2023/07/08 00:40:57;;;;;;;8.45;3.40;;;;;;;21.29;46.54;99681.66;4392646;32;34127;-87
2023/07/08 00:43:55;;;;;;;6.37;3.15;;;;;;;21.27;46.50;99679.94;4405985;32;33439;-87
2023/07/08 00:46:31;;;;;;;7.40;3.67;;;;;;;21.25;46.76;99676.47;4405291;32;33778;-87
2023/07/08 00:49:06;;;;;;;6.90;3.47;;;;;;;21.20;46.46;99673.94;4405952;32;34856;-87
2023/07/08 00:51:35;;;;;;;6.10;3.00;;;;;;;21.04;47.55;99670.78;4391729;32;33553;-85
2023/07/08 00:54:02;;;;;;;9.25;3.03;;;;;;;21.05;47.14;99675.16;4405627;32;33480;-85
2023/07/08 00:56:38;;;;;;;7.15;3.62;;;;;;;21.05;47.08;99677.78;4403663;32;33926;-85
2023/07/08 00:59:10;;;;;;;6.75;3.30;;;;;;;21.07;47.15;99672.50;4388849;32;35009;-86
2023/07/08 01:01:40;;;;;;;7.37;3.60;;;;;;;21.14;47.11;99671.47;4400322;32;33916;-87
2023/07/08 01:04:20;;;;;;;9.55;3.50;;;;;;;20.98;47.56;99675.31;4389718;32;33018;-84
2023/07/08 01:06:56;;;;;;;8.82;3.90;;;;;;;21.11;47.80;99674.16;4389690;32;34643;-87
2023/07/08 01:09:28;;;;;;;8.13;3.47;;;;;;;20.97;47.83;99674.44;4404435;32;32621;-86
2023/07/08 01:11:57;;;;;;;7.05;3.67;;;;;;;20.94;47.92;99678.91;4390403;32;34745;-87
2023/07/08 01:14:27;;;;;;;6.25;3.25;;;;;;;21.02;47.93;99676.97;4416011;32;34391;-87
2023/07/08 01:16:54;;;;;;;7.18;3.50;;;;;;;21.02;48.05;99682.25;4392023;32;33527;-86
2023/07/08 01:19:32;;;;;;;8.20;3.45;;;;;;;20.96;48.54;99677.12;4390847;32;34158;-85
2023/07/08 01:22:04;;;;;;;8.38;4.28;;;;;;;20.91;48.56;99685.16;4380123;32;33504;-87
2023/07/08 01:24:35;;;;;;;6.20;3.30;;;;;;;20.93;48.43;99677.19;4379074;32;32021;-87
2023/07/08 01:27:05;;;;;;;7.60;3.78;;;;;;;20.85;48.42;99680.84;4391256;32;33738;-86
2023/07/08 01:29:34;;;;;;;9.35;3.67;;;;;;;20.86;48.34;99677.31;4391464;32;34776;-87
2023/07/08 01:32:05;;;;;;;7.35;3.55;;;;;;;20.94;48.09;99668.38;4405623;32;33810;-83
2023/07/08 01:34:34;;;;;;;9.57;3.55;;;;;;;20.96;48.43;99671.84;4404949;32;35255;-87
2023/07/08 01:37:04;;;;;;;7.40;3.75;;;;;;;20.82;48.86;99680.91;4379176;32;33728;-84
2023/07/08 01:39:32;;;;;;;7.80;3.25;;;;;;;20.78;48.84;99679.25;4391573;32;34111;-86
2023/07/08 01:42:00;;;;;;;8.43;3.92;;;;;;;20.72;49.25;99674.13;4405163;32;33992;-87
2023/07/08 01:44:33;;;;;;;8.52;3.80;;;;;;;20.70;49.07;99673.25;4366262;32;33267;-84
2023/07/08 01:47:04;;;;;;;9.27;3.90;;;;;;;20.67;49.31;99675.94;4378836;32;33830;-87
2023/07/08 01:49:33;;;;;;;7.50;3.72;;;;;;;20.65;49.28;99678.63;4405080;32;34028;-86
2023/07/08 01:52:01;;;;;;;7.45;3.90;;;;;;;20.65;49.39;99677.78;4391625;32;34043;-85
2023/07/08 01:54:29;;;;;;;7.93;4.00;;;;;;;20.53;49.94;99670.09;4390788;32;33605;-86
2023/07/08 01:56:56;;;;;;;7.20;3.50;;;;;;;20.69;49.46;99676.81;4403564;32;35357;-85
2023/07/08 01:59:24;;;;;;;8.25;3.60;;;;;;;20.64;49.35;99670.75;4391371;32;34337;-86
2023/07/08 02:01:54;;;;;;;8.13;4.03;;;;;;;20.56;49.60;99667.41;4391420;32;34034;-85
2023/07/08 02:04:24;;;;;;;10.32;3.92;;;;;;;20.48;50.02;99662.25;4403364;32;33587;-85
2023/07/08 02:06:54;;;;;;;9.70;4.00;;;;;;;20.46;49.87;99665.84;4388039;32;34702;-86
2023/07/08 02:09:22;;;;;;;7.85;3.45;;;;;;;20.50;50.06;99668.41;4402290;32;34317;-84
2023/07/08 02:11:49;;;;;;;7.62;3.45;;;;;;;20.42;49.84;99671.16;4388523;32;34142;-85
2023/07/08 02:14:17;;;;;;;6.15;3.20;;;;;;;20.60;49.64;99669.06;4403288;32;33480;-83
2023/07/08 02:16:44;;;;;;;6.68;3.20;;;;;;;20.37;50.32;99672.97;4404023;32;33189;-86
2023/07/08 02:19:12;;;;;;;8.07;3.58;;;;;;;20.47;49.81;99667.56;4402341;32;35132;-84
2023/07/08 02:21:40;;;;;;;7.93;3.53;;;;;;;20.31;50.24;99672.25;4402449;32;33779;-87
2023/07/08 02:24:08;;;;;;;7.65;4.22;;;;;;;20.29;50.16;99679.31;4404799;32;33612;-87
2023/07/08 02:26:35;;;;;;;7.35;3.50;;;;;;;20.23;50.25;99676.78;4389637;32;33681;-86
2023/07/08 02:29:03;;;;;;;8.23;4.03;;;;;;;20.12;50.47;99679.63;4402904;32;34031;-85
2023/07/08 02:31:31;;;;;;;6.68;3.50;;;;;;;20.06;50.71;99672.69;4403874;32;33579;-85
2023/07/08 02:33:58;;;;;;;8.07;3.58;;;;;;;20.18;50.43;99671.59;4404582;32;32781;-84
2023/07/08 02:36:27;;;;;;;7.82;3.70;;;;;;;20.07;50.51;99669.16;4390393;32;33651;-86
2023/07/08 02:38:55;;;;;;;6.22;3.75;;;;;;;20.19;50.51;99673.31;4392640;32;33867;-84
2023/07/08 02:41:23;;;;;;;9.82;3.62;;;;;;;20.04;50.85;99677.12;4403452;32;33375;-86
2023/07/08 02:43:50;;;;;;;8.27;3.42;;;;;;;19.97;51.04;99677.25;4405344;32;33323;-86
2023/07/08 02:46:18;;;;;;;6.22;3.40;;;;;;;19.85;50.95;99678.31;4402930;32;33529;-87
2023/07/08 02:48:46;;;;;;;6.45;3.35;;;;;;;19.93;50.93;99679.94;4405485;32;33556;-87
2023/07/08 02:51:13;;;;;;;7.78;3.67;;;;;;;20.00;50.75;99682.44;4390349;32;33970;-84
2023/07/08 02:53:41;;;;;;;7.50;3.50;;;;;;;19.89;50.94;99686.16;4404917;32;33510;-86
2023/07/08 02:56:08;;;;;;;8.10;4.22;;;;;;;19.88;51.18;99684.41;4403774;32;33413;-85
2023/07/08 02:58:36;;;;;;;7.05;3.55;;;;;;;19.98;50.80;99687.75;4406286;32;33971;-86
2023/07/08 03:01:03;;;;;;;5.87;3.40;;;;;;;19.97;50.96;99682.53;4404776;32;34846;-87
2023/07/08 03:03:34;;;;;;;8.65;3.60;;;;;;;20.02;50.93;99685.94;4404963;32;33346;-87
2023/07/08 03:06:05;;;;;;;7.43;3.70;;;;;;;19.75;51.54;99685.50;4390103;32;33434;-88
2023/07/08 03:08:33;;;;;;;8.45;4.28;;;;;;;19.75;51.46;99685.50;4394040;32;33855;-84
2023/07/08 03:11:03;;;;;;;6.78;3.40;;;;;;;19.61;51.69;99690.94;4421644;32;34043;-87
2023/07/08 03:13:32;;;;;;;7.95;3.75;;;;;;;19.66;52.05;99693.53;4399670;32;33513;-85
2023/07/08 03:16:01;;;;;;;6.20;3.58;;;;;;;19.72;52.01;99693.44;4392543;32;34894;-87
2023/07/08 03:18:29;;;;;;;7.97;3.90;;;;;;;19.77;51.52;99686.34;4392646;32;34111;-83
2023/07/08 03:20:57;;;;;;;6.18;3.08;;;;;;;19.79;51.68;99687.19;4392644;32;33609;-85
2023/07/08 03:23:26;;;;;;;6.28;3.70;;;;;;;19.74;51.85;99690.81;4406492;32;33334;-86
2023/07/08 03:25:53;;;;;;;8.98;3.90;;;;;;;19.77;52.11;99691.59;4406019;32;33924;-85
2023/07/08 03:28:22;;;;;;;7.40;3.50;;;;;;;19.60;52.37;99699.72;4392854;32;33459;-86
2023/07/08 03:30:52;;;;;;;6.32;3.72;;;;;;;19.66;52.00;99694.41;4380145;32;32158;-86
2023/07/08 03:33:20;;;;;;;7.28;3.17;;;;;;;19.72;51.64;99696.06;4380078;32;32366;-85
2023/07/08 03:35:48;;;;;;;7.05;3.92;;;;;;;19.77;51.99;99698.63;4391956;32;33772;-83
2023/07/08 03:38:16;;;;;;;6.85;3.33;;;;;;;19.58;52.31;99700.62;4392318;32;34219;-84
2023/07/08 03:40:44;;;;;;;6.55;3.80;;;;;;;19.72;51.96;99697.84;4379759;32;33530;-87
2023/07/08 03:43:11;;;;;;;8.55;3.60;;;;;;;19.67;51.75;99701.41;4391570;32;33874;-85
2023/07/08 03:45:39;;;;;;;5.82;3.20;;;;;;;19.76;51.85;99700.38;4392417;32;33597;-86
2023/07/08 03:48:10;;;;;;;6.25;3.30;;;;;;;19.89;51.23;99707.22;4380061;32;32690;-86
2023/07/08 03:50:38;;;;;;;5.68;3.30;;;;;;;19.81;51.75;99709.09;4406076;32;33686;-85
2023/07/08 03:53:06;;;;;;;6.45;3.45;;;;;;;20.07;52.05;99700.75;4391829;32;34444;-84
2023/07/08 03:55:34;;;;;;;7.00;3.35;;;;;;;20.32;51.48;99703.81;4406438;32;34812;-87
2023/07/08 03:58:02;;;;;;;6.62;3.40;;;;;;;20.55;50.64;99702.56;4392359;32;33864;-86
2023/07/08 04:00:30;;;;;;;7.75;3.03;;;;;;;20.72;50.30;99705.72;4406057;32;34807;-86
2023/07/08 04:02:58;;;;;;;6.12;3.30;;;;;;;20.94;49.76;99700.00;4392756;32;34336;-86
2023/07/08 04:05:26;;;;;;;7.37;3.65;;;;;;;21.18;49.41;99699.50;4391995;32;33292;-85
2023/07/08 04:07:55;;;;;;;6.40;3.30;;;;;;;21.40;49.45;99705.16;4402861;32;33754;-86
2023/07/08 04:10:22;;;;;;;5.90;3.35;;;;;;;21.34;50.24;99706.19;4395938;32;33578;-87
2023/07/08 04:12:50;;;;;;;7.68;3.65;;;;;;;21.79;49.35;99708.66;4404521;32;33429;-87
2023/07/08 04:15:17;;;;;;;6.30;3.67;;;;;;;21.88;49.14;99707.56;4404480;32;33511;-86
2023/07/08 04:17:47;;;;;;;7.07;3.80;;;;;;;21.84;49.66;99709.41;4390855;32;34985;-87
2023/07/08 04:20:18;;;;;;;6.82;3.35;;;;;;;22.26;48.66;99703.97;4390872;32;35038;-86
2023/07/08 04:22:46;;;;;;;6.70;3.25;;;;;;;22.37;48.00;99710.75;4378691;32;32700;-86
2023/07/08 04:25:14;;;;;;;7.03;3.50;;;;;;;22.51;47.84;99704.19;4390341;32;33612;-86
2023/07/08 04:27:42;;;;;;;6.70;3.40;;;;;;;22.76;48.36;99706.13;4404470;32;33981;-86
2023/07/08 04:30:21;;;;;;;6.47;3.40;;;;;;;22.96;47.29;99709.13;4402878;32;33529;-85
2023/07/08 04:32:50;;;;;;;10.05;3.42;;;;;;;23.65;46.03;99703.50;4390989;32;33346;-87
2023/07/08 04:35:18;;;;;;;6.82;3.40;;;;;;;23.84;45.55;99699.34;4390757;32;33997;-84
2023/07/08 04:37:47;;;;;;;7.68;3.33;;;;;;;24.00;45.58;99703.22;4404422;32;34563;-86
2023/07/08 04:40:21;;;;;;;8.50;3.12;;;;;;;24.35;44.78;99708.22;4402223;32;33866;-86
2023/07/08 04:42:51;;;;;;;7.82;3.28;;;;;;;24.58;44.18;99700.34;4389981;32;34283;-85
2023/07/08 04:45:19;;;;;;;7.80;3.25;;;;;;;24.86;43.48;99704.66;4404244;32;33869;-84
2023/07/08 04:47:52;;;;;;;5.85;3.45;;;;;;;25.07;43.52;99709.13;4404024;32;34053;-86
2023/07/08 04:50:21;;;;;;;7.70;3.30;;;;;;;25.35;43.04;99705.47;4404501;32;34117;-87
2023/07/08 04:52:49;;;;;;;8.43;3.45;;;;;;;25.56;42.75;99715.22;4402671;32;34363;-87
2023/07/08 04:55:18;;;;;;;5.80;2.90;;;;;;;25.70;42.86;99718.19;4403926;32;33807;-87
2023/07/08 04:57:45;;;;;;;6.93;3.28;;;;;;;25.97;42.74;99712.72;4404454;32;34632;-84
2023/07/08 05:00:16;;;;;;;6.82;3.53;;;;;;;26.01;42.43;99714.31;4402486;32;34756;-87
2023/07/08 05:02:44;;;;;;;5.57;2.67;;;;;;;26.18;42.39;99714.47;4402610;32;33491;-87
2023/07/08 05:05:12;;;;;;;5.78;3.22;;;;;;;26.33;42.19;99709.41;4395252;32;33620;-85
2023/07/08 05:07:39;;;;;;;6.03;2.97;;;;;;;26.41;41.90;99709.97;4405066;32;34936;-85
2023/07/08 05:10:07;;;;;;;5.65;2.85;;;;;;;26.54;41.47;99703.19;4399895;32;33831;-87
2023/07/08 05:12:35;;;;;;;7.18;3.08;;;;;;;26.66;41.72;99726.56;4404305;32;33775;-86
2023/07/08 05:15:03;;;;;;;7.20;3.00;;;;;;;26.80;41.60;99719.78;4402437;32;34126;-84
2023/07/08 05:17:34;;;;;;;6.55;3.30;;;;;;;26.96;41.02;99725.28;4387032;32;34154;-87
2023/07/08 05:20:03;;;;;;;6.57;3.70;;;;;;;26.54;39.52;99718.28;4391307;32;34814;-85
2023/07/08 05:22:31;;;;;;;7.10;3.00;;;;;;;26.25;40.31;99727.47;4404045;32;34180;-86
2023/07/08 05:24:59;;;;;;;10.25;3.58;;;;;;;25.84;40.25;99724.78;4390327;32;34836;-86
2023/07/08 05:27:27;;;;;;;10.95;3.58;;;;;;;25.43;41.04;99724.63;4415247;32;34611;-86
2023/07/08 05:29:54;;;;;;;7.78;3.37;;;;;;;25.51;40.75;99734.94;4402795;32;33686;-85
2023/07/08 05:32:22;;;;;;;8.43;3.53;;;;;;;25.99;39.79;99726.81;4389292;32;33133;-85
2023/07/08 05:34:50;;;;;;;6.85;2.97;;;;;;;25.57;41.75;99730.25;4403595;32;34740;-86
2023/07/08 05:37:21;;;;;;;8.93;4.00;;;;;;;25.07;42.19;99735.66;4404018;32;34077;-86
2023/07/08 05:39:48;;;;;;;10.23;4.25;;;;;;;25.07;42.27;99735.66;4373466;32;33431;-85
2023/07/08 05:42:16;;;;;;;10.00;3.78;;;;;;;23.87;44.04;99746.06;4402551;32;33477;-85
2023/07/08 05:44:43;;;;;;;8.35;3.87;;;;;;;24.24;43.67;99748.31;4391369;32;34659;-85
2023/07/08 05:47:12;;;;;;;5.85;3.37;;;;;;;24.21;44.18;99749.31;4384940;32;35086;-86
2023/07/08 05:49:40;;;;;;;7.82;3.72;;;;;;;24.96;43.03;99743.16;4401246;32;33710;-86
2023/07/08 05:52:10;;;;;;;8.10;4.30;;;;;;;24.46;43.88;99751.16;4403549;32;33048;-86
2023/07/08 05:54:40;;;;;;;6.87;3.53;;;;;;;24.36;43.98;99747.03;4403611;32;33681;-86
2023/07/08 05:57:10;;;;;;;6.72;3.28;;;;;;;25.10;44.68;99751.50;4376522;32;33929;-86
2023/07/08 05:59:38;;;;;;;6.37;3.05;;;;;;;24.93;46.14;99753.91;4397408;32;34044;-86
2023/07/08 06:02:06;;;;;;;7.57;3.55;;;;;;;25.19;43.69;99748.53;4404021;32;33192;-85
2023/07/08 06:04:34;;;;;;;7.32;3.75;;;;;;;25.43;42.46;99751.16;4404887;32;33817;-87
2023/07/08 06:07:02;;;;;;;9.73;3.67;;;;;;;25.60;41.95;99746.03;4394666;32;35003;-86
2023/07/08 06:09:29;;;;;;;7.65;3.58;;;;;;;25.75;42.84;99755.19;4407426;32;33094;-86
2023/07/08 06:11:57;;;;;;;7.45;3.90;;;;;;;25.68;42.80;99753.69;4393758;32;32415;-86
2023/07/08 06:14:26;;;;;;;7.47;2.97;;;;;;;25.92;42.64;99763.38;4393998;32;33876;-84
2023/07/08 06:16:54;;;;;;;6.82;3.28;;;;;;;26.34;41.21;99759.00;4382779;32;33474;-84
2023/07/08 06:19:22;;;;;;;9.15;3.58;;;;;;;26.90;40.20;99763.69;4394931;32;34327;-85
2023/07/08 06:21:50;;;;;;;7.30;3.47;;;;;;;26.63;41.19;99765.72;4407543;32;33001;-87
2023/07/08 06:24:17;;;;;;;8.40;3.12;;;;;;;26.50;40.62;99761.91;4409784;32;34958;-87
2023/07/08 06:26:45;;;;;;;7.20;3.33;;;;;;;26.61;39.11;99762.28;4407956;32;33963;-88
2023/07/08 06:29:25;;;;;;;6.57;3.35;;;;;;;27.11;38.14;99744.09;4403306;32;33961;-85
2023/07/08 06:31:53;;;;;;;9.43;3.45;;;;;;;27.14;38.81;99753.75;4381608;32;34002;-84
2023/07/08 06:34:23;;;;;;;7.05;3.12;;;;;;;26.75;39.40;99756.38;4380821;32;33973;-82
2023/07/08 06:36:50;;;;;;;9.32;3.78;;;;;;;27.34;38.98;99755.47;4401243;32;34694;-89
2023/07/08 06:39:18;;;;;;;6.85;2.95;;;;;;;27.87;39.40;99754.72;4407486;32;33900;-86
2023/07/08 06:41:46;;;;;;;5.70;2.90;;;;;;;27.63;38.77;99759.44;4407758;32;33356;-85
2023/07/08 06:44:14;;;;;;;9.50;2.97;;;;;;;28.14;36.85;99753.34;4407837;32;34122;-86
2023/07/08 06:46:42;;;;;;;6.12;2.95;;;;;;;28.07;35.71;99746.62;4393455;32;33702;-84
2023/07/08 06:49:11;;;;;;;7.22;2.67;;;;;;;28.02;36.81;99748.63;4394692;32;34503;-86
2023/07/08 06:51:39;;;;;;;7.12;3.00;;;;;;;28.22;37.56;99746.78;4405860;32;33248;-86
2023/07/08 06:54:11;;;;;;;6.22;2.50;;;;;;;27.82;33.89;99741.63;4408377;32;33848;-85
2023/07/08 06:56:39;;;;;;;4.95;2.50;;;;;;;27.65;32.17;99742.44;4402531;32;33679;-86
2023/07/08 06:59:07;;;;;;;7.45;2.95;;;;;;;27.89;33.56;99745.72;4394047;32;33492;-86
2023/07/08 07:01:36;;;;;;;6.30;2.62;;;;;;;27.03;33.57;99740.03;4393664;32;34389;-84
2023/07/08 07:04:04;;;;;;;6.30;2.85;;;;;;;27.38;33.29;99741.06;4395558;32;33734;-86
2023/07/08 07:06:32;;;;;;;6.18;2.50;;;;;;;27.66;30.81;99745.97;4408825;32;35012;-84
2023/07/08 07:09:00;;;;;;;5.90;2.25;;;;;;;27.86;31.58;99737.03;4408955;32;33643;-85
2023/07/08 07:11:28;;;;;;;5.78;2.42;;;;;;;28.08;29.85;99732.34;4409251;32;34012;-83
2023/07/08 07:13:55;;;;;;;4.78;2.33;;;;;;;27.44;30.26;99732.81;4409266;32;34658;-83
2023/07/08 07:16:23;;;;;;;6.70;2.60;;;;;;;28.14;30.19;99734.69;4408989;32;34194;-83
2023/07/08 07:18:51;;;;;;;7.05;2.67;;;;;;;27.88;32.06;99737.78;4405743;32;34075;-84
2023/07/08 07:21:19;;;;;;;8.55;2.65;;;;;;;28.19;32.44;99730.97;4405993;32;34481;-84
2023/07/08 07:23:47;;;;;;;5.72;2.75;;;;;;;28.12;31.10;99731.25;4392627;32;33912;-84
2023/07/08 07:26:14;;;;;;;6.47;2.67;;;;;;;28.85;32.13;99731.06;4406395;32;35498;-84
2023/07/08 07:28:42;;;;;;;7.45;2.80;;;;;;;28.73;31.44;99737.06;4406623;32;33651;-84
2023/07/08 07:31:11;;;;;;;5.43;2.40;;;;;;;27.95;31.01;99731.22;4406436;32;33414;-83
2023/07/08 07:33:38;;;;;;;4.68;2.72;;;;;;;28.14;31.80;99732.03;4406165;32;34273;-83
2023/07/08 07:36:06;;;;;;;7.50;2.72;;;;;;;28.36;31.77;99738.94;4406476;32;33694;-83
2023/07/08 07:38:34;;;;;;;5.47;1.90;;;;;;;28.67;29.95;99735.56;4392635;32;33675;-83
2023/07/08 07:41:05;;;;;;;6.10;2.47;;;;;;;27.85;31.09;99735.31;4406137;32;34307;-84
2023/07/08 07:43:34;;;;;;;5.62;2.70;;;;;;;28.32;31.45;99732.03;4406273;32;34712;-85
2023/07/08 07:46:02;;;;;;;7.87;3.25;;;;;;;28.12;32.02;99736.59;4406212;32;34241;-85
2023/07/08 07:48:30;;;;;;;5.68;2.42;;;;;;;28.32;31.68;99734.72;4406180;32;33854;-84
2023/07/08 07:50:58;;;;;;;5.50;2.40;;;;;;;28.62;31.63;99742.97;4405436;32;33513;-83
2023/07/08 07:53:25;;;;;;;5.35;2.60;;;;;;;28.23;29.63;99728.06;4406199;32;34099;-84
2023/07/08 07:56:01;;;;;;;6.93;2.53;;;;;;;28.67;30.76;99729.38;4392168;32;33039;-84
2023/07/08 07:58:30;;;;;;;5.12;2.45;;;;;;;28.79;30.45;99726.03;4392702;32;33405;-83
2023/07/08 08:00:58;;;;;;;4.60;2.15;;;;;;;28.78;30.92;99722.50;4392297;32;33251;-83
2023/07/08 08:03:26;;;;;;;6.97;2.50;;;;;;;29.02;30.31;99720.38;4385347;32;34038;-84
2023/07/08 08:05:54;;;;;;;8.98;2.80;;;;;;;28.13;30.77;99718.78;4404934;32;34838;-82
2023/07/08 08:08:22;;;;;;;9.35;3.10;;;;;;;27.81;30.38;99726.59;4405541;32;34135;-81
2023/07/08 08:10:50;;;;;;;7.53;2.72;;;;;;;28.25;30.61;99726.16;4405833;32;34380;-81
2023/07/08 08:13:17;;;;;;;6.62;3.25;;;;;;;28.25;30.80;99717.28;4379893;32;33145;-82
2023/07/08 08:15:45;;;;;;;6.05;2.90;;;;;;;28.22;30.91;99715.62;4405385;32;34600;-83
2023/07/08 08:18:12;;;;;;;6.12;3.03;;;;;;;28.62;30.38;99714.47;4405232;32;33693;-82
2023/07/08 08:20:41;;;;;;;6.07;2.58;;;;;;;28.67;30.03;99706.22;4416652;32;33346;-83
2023/07/08 08:23:08;;;;;;;6.12;2.50;;;;;;;28.62;29.79;99714.47;4405526;32;33417;-83
2023/07/08 08:25:36;;;;;;;4.70;2.30;;;;;;;28.07;31.55;99711.97;4406916;32;35097;-83
2023/07/08 08:28:03;;;;;;;7.55;2.50;;;;;;;28.04;30.47;99712.13;4412147;32;34794;-82
2023/07/08 08:30:32;;;;;;;5.37;2.47;;;;;;;28.25;31.32;99711.97;4403994;32;33624;-85
2023/07/08 08:32:59;;;;;;;5.15;2.03;;;;;;;28.18;30.92;99714.06;4413223;32;33532;-86
2023/07/08 08:35:27;;;;;;;7.72;2.95;;;;;;;28.44;30.30;99714.56;4398006;32;34214;-86
2023/07/08 08:37:54;;;;;;;7.53;2.58;;;;;;;28.83;30.73;99711.63;4418608;32;33934;-84
2023/07/08 08:40:22;;;;;;;7.00;2.62;;;;;;;28.83;30.93;99711.63;4407399;32;33354;-82
2023/07/08 08:42:57;;;;;;;4.93;2.60;;;;;;;29.09;28.68;99708.44;4406987;32;33844;-83
2023/07/08 08:45:26;;;;;;;;;;;;;;;29.01;29.65;99705.28;4390916;32;34123;-83
2023/07/08 08:47:58;;;;;;;8.55;2.65;;;;;;;29.06;31.08;99705.91;4388008;32;34710;-83
2023/07/08 08:50:30;;;;;;;6.75;2.60;;;;;;;28.31;31.34;99699.19;4392117;32;33845;-82
2023/07/08 08:53:04;;;;;;;5.05;2.40;;;;;;;28.87;32.08;99699.84;4405374;32;33775;-82
2023/07/08 08:55:32;;;;;;;6.95;2.67;;;;;;;29.01;30.83;99702.63;4391824;32;34861;-82
2023/07/08 08:58:12;;;;;;;5.07;2.50;;;;;;;29.06;29.53;99695.25;4405381;32;34222;-82
2023/07/08 09:01:02;;;;;;;5.18;2.40;;;;;;;29.25;28.21;99692.41;4389932;32;34432;-83
2023/07/08 09:03:38;;;;;;;11.57;3.22;;;;;;;29.20;30.33;99689.13;4390999;32;34874;-84
2023/07/08 09:06:12;;;;;;;4.87;2.78;;;;;;;29.10;30.43;99685.25;4388842;32;34964;-84
2023/07/08 09:08:40;;;;;;;6.60;2.67;;;;;;;29.17;30.29;99685.75;4403687;32;34543;-84
2023/07/08 09:11:27;;;;;;;6.43;2.92;;;;;;;28.81;29.37;99681.47;4389170;32;33908;-87
2023/07/08 09:13:54;;;;;;;7.85;2.70;;;;;;;29.29;28.91;99699.31;4402391;32;33694;-84
2023/07/08 09:16:25;;;;;;;6.53;2.92;;;;;;;29.22;30.21;99681.03;4390230;32;33981;-84
2023/07/08 09:19:12;;;;;;;6.57;2.65;;;;;;;29.42;27.94;99691.44;4405570;32;33719;-85
2023/07/08 09:21:40;;;;;;;8.85;2.58;;;;;;;29.49;28.30;99692.84;4405571;32;33098;-85
2023/07/08 09:24:14;;;;;;;6.30;2.70;;;;;;;29.84;28.58;99700.66;4403584;32;34661;-83
2023/07/08 09:26:43;;;;;;;6.00;2.62;;;;;;;29.70;27.13;99703.25;4391456;32;33882;-85
2023/07/08 09:29:10;;;;;;;4.62;2.30;;;;;;;29.37;27.94;99696.22;4391044;32;33968;-84
2023/07/08 09:31:39;;;;;;;5.57;2.60;;;;;;;28.81;28.36;99697.47;4389392;32;33097;-83
2023/07/08 09:34:07;;;;;;;5.65;2.47;;;;;;;28.46;28.24;99699.38;4391569;32;33994;-84
2023/07/08 09:36:39;;;;;;;6.15;2.92;;;;;;;28.82;28.33;99693.88;4402909;32;34053;-84
2023/07/08 09:39:14;;;;;;;8.07;2.80;;;;;;;28.76;28.71;99696.87;4391671;32;34781;-83
2023/07/08 09:41:43;;;;;;;6.65;2.55;;;;;;;28.93;29.13;99696.81;4385415;32;34273;-83
2023/07/08 09:44:23;;;;;;;9.38;2.83;;;;;;;28.51;28.82;99686.63;4405160;32;34038;-83
2023/07/08 09:46:50;;;;;;;6.60;2.78;;;;;;;28.61;28.39;99696.75;4390619;32;35135;-83
2023/07/08 09:49:32;;;;;;;4.93;2.70;;;;;;;28.82;29.50;99689.37;4403949;32;34559;-83
2023/07/08 09:52:00;;;;;;;7.15;3.10;;;;;;;29.05;31.78;99692.62;4387196;32;33629;-83
2023/07/08 09:54:30;;;;;;;7.75;2.90;;;;;;;29.10;30.69;99687.94;4390286;32;33903;-82
2023/07/08 09:57:04;;;;;;;5.10;2.15;;;;;;;28.65;28.99;99696.59;4403951;32;34241;-83
2023/07/08 09:59:36;;;;;;;7.65;2.50;;;;;;;28.86;29.13;99687.41;4389891;32;34714;-82
2023/07/08 10:02:23;;;;;;;6.62;2.87;;;;;;;28.03;30.21;99696.19;4400311;32;33173;-84
2023/07/08 10:04:56;;;;;;;6.65;2.97;;;;;;;28.59;34.51;99695.94;4417531;32;33108;-83
2023/07/08 10:07:29;;;;;;;6.47;2.65;;;;;;;28.61;29.48;99691.41;4393891;32;34059;-84
2023/07/08 10:09:58;;;;;;;8.30;3.05;;;;;;;28.87;30.89;99683.81;4384636;32;34673;-83
2023/07/08 10:12:26;;;;;;;6.07;3.00;;;;;;;29.22;36.48;99691.72;4389742;32;33473;-85
2023/07/08 10:15:00;;;;;;;6.47;3.08;;;;;;;29.54;33.98;99687.22;4403233;32;33646;-84
2023/07/08 10:17:29;;;;;;;8.05;2.95;;;;;;;29.32;32.97;99677.78;4406078;32;34221;-85
2023/07/08 10:19:57;;;;;;;10.50;2.92;;;;;;;29.43;30.35;99679.81;4405096;32;34052;-85
2023/07/08 10:22:43;;;;;;;5.82;2.95;;;;;;;29.23;28.80;99675.59;4416126;32;33696;-85
2023/07/08 10:25:13;;;;;;;6.20;3.03;;;;;;;29.46;28.79;99668.09;4402227;32;33501;-83
2023/07/08 10:28:02;;;;;;;7.12;2.80;;;;;;;29.34;28.73;99673.19;4417623;32;34127;-84
2023/07/08 10:30:38;;;;;;;7.00;2.42;;;;;;;29.52;30.69;99673.09;4388242;32;33727;-84
2023/07/08 10:33:43;;;;;;;5.53;2.60;;;;;;;29.47;28.43;99668.03;4385990;32;33265;-83
2023/07/08 10:36:13;;;;;;;5.72;2.45;;;;;;;29.46;26.90;99662.75;4380979;32;33744;-86
2023/07/08 10:39:05;;;;;;;6.70;2.85;;;;;;;29.82;26.71;99665.16;4389527;32;35097;-84
2023/07/08 10:41:54;;;;;;;6.15;2.67;;;;;;;30.07;26.75;99664.53;4404554;32;33762;-85
2023/07/08 10:44:31;;;;;;;9.73;3.10;;;;;;;30.18;28.45;99655.91;4402825;32;33365;-84
2023/07/08 10:47:05;;;;;;;6.30;2.42;;;;;;;30.24;29.07;99660.91;4389983;32;34100;-85
2023/07/08 10:49:39;;;;;;;7.55;3.03;;;;;;;29.54;27.19;99656.00;4400383;32;33824;-84
2023/07/08 10:52:30;;;;;;;6.30;3.00;;;;;;;29.74;26.86;99654.06;4396757;32;193213;-84
2023/07/08 10:55:19;;;;;;;5.72;2.40;;;;;;;29.96;27.21;99651.81;4375107;32;34610;-85
2023/07/08 10:57:56;;;;;;;5.43;2.40;;;;;;;29.98;28.39;99649.91;4404770;32;34699;-85
2023/07/08 11:00:39;;;;;;;7.70;2.85;;;;;;;30.02;27.80;99656.81;4404681;32;33752;-83
2023/07/08 11:03:28;;;;;;;6.18;2.33;;;;;;;30.26;27.16;99645.59;4401403;32;34706;-84
2023/07/08 11:06:03;;;;;;;6.65;2.60;;;;;;;30.11;30.06;99650.03;4406539;32;33382;-85
2023/07/08 11:08:50;;;;;;;5.75;2.50;;;;;;;29.83;28.75;99645.47;4391391;32;33448;-84
2023/07/08 11:11:39;;;;;;;7.07;2.50;;;;;;;30.00;27.32;99649.81;4404249;32;33815;-84
2023/07/08 11:14:42;;;;;;;6.30;2.75;;;;;;;30.33;27.84;99643.44;4392563;32;33722;-85
2023/07/08 11:17:34;;;;;;;5.90;2.62;;;;;;;29.45;26.66;99643.19;4354630;32;33521;-84
2023/07/08 11:20:23;;;;;;;7.03;3.05;;;;;;;29.98;27.81;99638.38;4383493;32;33635;-85
2023/07/08 11:22:55;;;;;;;6.30;3.05;;;;;;;29.85;26.76;99634.69;4388688;32;33284;-85
2023/07/08 11:25:24;;;;;;;6.10;2.70;;;;;;;29.76;26.82;99636.09;4391883;32;34014;-85
2023/07/08 11:27:55;;;;;;;5.80;3.03;;;;;;;29.72;27.18;99637.22;4392572;32;33249;-84
2023/07/08 11:30:25;;;;;;;6.18;2.85;;;;;;;29.31;27.72;99635.09;4389552;32;33543;-83
2023/07/08 11:33:14;;;;;;;9.48;3.30;;;;;;;29.58;28.66;99632.69;4391742;32;34430;-83
2023/07/08 11:35:45;;;;;;;5.05;2.65;;;;;;;29.88;27.07;99624.69;4391106;32;33940;-85
2023/07/08 11:38:18;;;;;;;6.40;2.80;;;;;;;29.90;27.01;99625.47;4392490;32;34033;-85
2023/07/08 11:40:53;;;;;;;6.93;2.87;;;;;;;29.60;27.09;99619.25;4387159;32;33281;-83
2023/07/08 11:43:23;;;;;;;6.10;2.80;;;;;;;29.86;28.25;99615.91;4406048;32;33752;-85
2023/07/08 11:45:56;;;;;;;8.00;2.80;;;;;;;30.30;26.98;99599.84;4392116;32;33369;-86
2023/07/08 11:48:31;;;;;;;6.25;3.05;;;;;;;30.46;26.74;99613.16;4391810;32;33220;-84
2023/07/08 11:51:04;;;;;;;5.80;2.87;;;;;;;30.19;27.36;99605.03;4406036;32;34873;-85